createdAt,value
2023-05-21T00:01:07.846Z,100176.13
2023-05-21T00:04:16.674Z,100179.13
2023-05-21T00:07:22.521Z,100179.50
2023-05-21T00:10:27.476Z,100172.26
2023-05-21T00:13:33.413Z,100173.83
2023-05-21T00:16:40.370Z,100168.28
2023-05-21T00:19:47.343Z,100166.16
2023-05-21T00:22:53.429Z,100169.63
2023-05-21T00:25:58.908Z,100166.73
2023-05-21T00:29:04.174Z,100167.47
2023-05-21T00:32:10.367Z,100175.06
2023-05-21T00:35:16.134Z,100172.67
2023-05-21T00:38:24.564Z,100175.80
2023-05-21T00:41:33.247Z,100177.23
2023-05-21T00:44:41.061Z,100173.73
2023-05-21T00:47:48.970Z,100170.97
2023-05-21T00:50:56.956Z,100163.91
2023-05-21T00:54:05.262Z,100163.36
2023-05-21T00:57:11.518Z,100157.56
2023-05-21T01:00:17.567Z,100156.72
2023-05-21T01:03:24.042Z,100148.69
2023-05-21T01:06:30.557Z,100146.80
2023-05-21T01:09:29.772Z,100139.98
2023-05-21T01:12:23.585Z,100134.91
2023-05-21T01:15:29.121Z,100137.76
2023-05-21T01:18:37.081Z,100142.13
2023-05-21T01:21:44.768Z,100146.72
2023-05-21T01:24:52.684Z,100141.56
2023-05-21T01:27:58.373Z,100144.33
2023-05-21T01:31:04.522Z,100143.00
2023-05-21T01:34:09.891Z,100143.79
2023-05-21T01:37:23.402Z,100146.81
2023-05-21T01:41:11.151Z,100148.33
2023-05-21T01:44:17.250Z,100149.38
2023-05-21T01:47:16.767Z,100153.08
2023-05-21T01:50:25.868Z,100152.52
2023-05-21T01:53:32.249Z,100156.40
2023-05-21T01:56:39.025Z,100158.54
2023-05-21T01:59:45.549Z,100154.79
2023-05-21T02:02:51.244Z,100152.86
2023-05-21T02:05:59.608Z,100152.67
2023-05-21T02:09:05.140Z,100148.36
2023-05-21T02:12:11.435Z,100159.36
2023-05-21T02:15:17.258Z,100150.50
2023-05-21T02:18:23.691Z,100158.00
2023-05-21T02:21:30.299Z,100152.70
2023-05-21T02:24:34.868Z,100149.66
2023-05-21T02:27:42.466Z,100152.43
2023-05-21T02:30:48.477Z,100149.03
2023-05-21T02:33:56.876Z,100149.93
2023-05-21T02:37:02.501Z,100153.78
2023-05-21T02:40:10.888Z,100159.41
2023-05-21T02:43:17.383Z,100154.03
2023-05-21T02:46:24.151Z,100149.17
2023-05-21T02:49:30.655Z,100154.27
2023-05-21T02:52:36.266Z,100152.25
2023-05-21T02:55:43.132Z,100156.75
2023-05-21T02:58:48.640Z,100151.71
2023-05-21T03:01:55.315Z,100154.61
2023-05-21T03:05:01.368Z,100155.98
2023-05-21T03:08:06.751Z,100151.82
2023-05-21T03:11:12.145Z,100149.97
2023-05-21T03:14:18.654Z,100153.28
2023-05-21T03:17:25.057Z,100157.93
2023-05-21T03:20:31.900Z,100154.14
2023-05-21T03:23:39.197Z,100153.52
2023-05-21T03:26:46.020Z,100149.59
2023-05-21T03:29:53.078Z,100152.13
2023-05-21T03:32:59.236Z,100162.87
2023-05-21T03:36:06.202Z,100166.16
2023-05-21T03:39:11.152Z,100164.77
2023-05-21T03:42:16.847Z,100161.92
2023-05-21T03:45:26.295Z,100170.09
2023-05-21T03:48:53.250Z,100162.14
2023-05-21T03:52:01.266Z,100153.44
2023-05-21T03:55:07.242Z,100155.37
2023-05-21T03:58:13.234Z,100154.06
2023-05-21T04:01:18.866Z,100151.34
2023-05-21T04:04:25.406Z,100149.44
2023-05-21T04:07:30.600Z,100152.27
2023-05-21T04:10:36.871Z,100152.69
2023-05-21T04:13:42.228Z,100147.86
2023-05-21T04:16:50.342Z,100148.29
2023-05-21T04:19:57.335Z,100153.18
2023-05-21T04:22:56.932Z,100153.31
2023-05-21T04:26:03.120Z,100155.59
2023-05-21T04:29:05.829Z,100159.02
2023-05-21T04:31:58.657Z,100161.34
2023-05-21T04:35:08.267Z,100165.25
2023-05-21T04:38:14.313Z,100160.18
2023-05-21T04:41:19.753Z,100160.70
2023-05-21T04:44:20.185Z,100157.27
2023-05-21T04:47:27.255Z,100163.66
2023-05-21T04:50:32.071Z,100170.99
2023-05-21T04:53:38.599Z,100176.92
2023-05-21T04:56:44.074Z,100177.27
2023-05-21T04:59:50.831Z,100181.78
2023-05-21T05:02:57.019Z,100179.05
2023-05-21T05:06:02.986Z,100191.41
2023-05-21T05:09:09.242Z,100186.08
2023-05-21T05:12:14.573Z,100182.75
2023-05-21T05:15:21.893Z,100186.68
2023-05-21T05:18:27.048Z,100200.97
2023-05-21T05:21:32.103Z,100188.13
2023-05-21T05:24:38.088Z,100188.12
2023-05-21T05:27:43.008Z,100182.00
2023-05-21T05:30:48.263Z,100190.34
2023-05-21T05:33:57.115Z,100180.73
2023-05-21T05:37:04.153Z,100181.04
2023-05-21T05:40:11.878Z,100184.88
2023-05-21T05:43:18.648Z,100176.71
2023-05-21T05:46:23.645Z,100173.73
2023-05-21T05:49:30.124Z,100179.67
2023-05-21T05:52:36.365Z,100169.25
2023-05-21T05:55:41.913Z,100169.18
2023-05-21T05:58:46.911Z,100160.56
2023-05-21T06:01:53.522Z,100198.12
2023-05-21T06:04:59.978Z,100193.95
2023-05-21T06:08:08.654Z,100171.28
2023-05-21T06:11:15.289Z,100171.05
2023-05-21T06:14:23.071Z,100166.29
2023-05-21T06:17:30.148Z,100161.75
2023-05-21T06:20:39.527Z,100167.34
2023-05-21T06:23:45.386Z,100172.66
2023-05-21T06:26:51.903Z,100164.52
2023-05-21T06:29:57.202Z,100165.60
2023-05-21T06:33:03.864Z,100157.66
2023-05-21T06:36:10.081Z,100160.08
2023-05-21T06:39:17.135Z,100156.73
2023-05-21T06:42:22.627Z,100153.77
2023-05-21T06:45:30.040Z,100158.25
2023-05-21T06:48:37.578Z,100154.53
2023-05-21T06:51:44.516Z,100151.63
2023-05-21T06:54:50.664Z,100148.17
2023-05-21T06:57:56.836Z,100151.31
2023-05-21T07:01:02.533Z,100157.41
2023-05-21T07:04:07.849Z,100165.67
2023-05-21T07:07:13.623Z,100151.77
2023-05-21T07:10:20.373Z,100168.66
2023-05-21T07:13:28.020Z,100171.45
2023-05-21T07:16:33.518Z,100160.91
2023-05-21T07:19:39.554Z,100163.57
2023-05-21T07:22:46.142Z,100161.77
2023-05-21T07:25:52.129Z,100162.72
2023-05-21T07:28:57.689Z,100169.28
2023-05-21T07:32:03.818Z,100167.55
2023-05-21T07:35:09.608Z,100163.58
2023-05-21T07:38:15.206Z,100164.47
2023-05-21T07:41:21.396Z,100160.72
2023-05-21T07:44:27.532Z,100165.04
2023-05-21T07:47:34.243Z,100172.69
2023-05-21T07:50:41.662Z,100161.83
2023-05-21T07:53:48.694Z,100159.77
2023-05-21T07:56:57.386Z,100154.33
2023-05-21T08:00:20.013Z,100150.30
2023-05-21T08:03:25.609Z,100149.54
2023-05-21T08:06:31.285Z,100154.77
2023-05-21T08:09:38.956Z,100156.22
2023-05-21T08:12:44.520Z,100153.16
2023-05-21T08:15:53.100Z,100155.51
2023-05-21T08:18:58.251Z,100160.83
2023-05-21T08:22:03.792Z,100151.16
2023-05-21T08:25:11.030Z,100156.78
2023-05-21T08:28:17.805Z,100145.97
2023-05-21T08:31:23.791Z,100157.84
2023-05-21T08:34:30.577Z,100155.42
2023-05-21T08:37:54.799Z,100148.46
2023-05-21T08:41:03.013Z,100149.03
2023-05-21T08:44:11.715Z,100150.63
2023-05-21T08:47:17.027Z,100137.55
2023-05-21T08:50:28.549Z,100138.18
2023-05-21T08:53:37.749Z,100130.24
2023-05-21T08:56:47.614Z,100135.72
2023-05-21T08:59:53.339Z,100131.20
2023-05-21T09:03:01.880Z,100119.45
2023-05-21T09:06:07.731Z,100122.28
2023-05-21T09:09:18.179Z,100119.63
2023-05-21T09:12:22.755Z,100118.34
2023-05-21T09:15:27.879Z,100114.22
2023-05-21T09:18:34.848Z,100122.39
2023-05-21T09:21:58.137Z,100109.41
2023-05-21T09:25:06.898Z,100103.30
2023-05-21T09:28:12.803Z,100100.29
2023-05-21T09:31:18.313Z,100096.71
2023-05-21T09:34:23.646Z,100101.16
2023-05-21T09:37:30.681Z,100095.58
2023-05-21T09:40:37.547Z,100093.70
2023-05-21T09:43:43.064Z,100089.95
2023-05-21T09:46:48.882Z,100080.21
2023-05-21T09:49:42.369Z,100074.68
2023-05-21T09:52:51.209Z,100079.25
2023-05-21T09:55:56.591Z,100085.27
2023-05-21T09:59:03.761Z,100075.98
2023-05-21T10:02:09.204Z,100077.45
2023-05-21T10:05:14.459Z,100074.75
2023-05-21T10:08:21.248Z,100084.22
2023-05-21T10:11:26.921Z,100070.77
2023-05-21T10:14:35.662Z,100056.61
2023-05-21T10:17:44.534Z,100063.67
2023-05-21T10:20:50.545Z,100053.21
2023-05-21T10:23:58.813Z,100062.72
2023-05-21T10:27:03.851Z,100050.30
2023-05-21T10:30:10.701Z,100043.91
2023-05-21T10:33:17.124Z,100042.34
2023-05-21T10:36:21.945Z,100050.30
2023-05-21T10:39:28.936Z,100039.08
2023-05-21T10:42:48.452Z,100062.34
2023-05-21T10:46:10.795Z,100067.61
2023-05-21T10:49:51.612Z,100061.84
2023-05-21T10:53:10.791Z,100065.67
2023-05-21T10:56:34.164Z,100072.55
2023-05-21T10:59:58.009Z,100086.08
2023-05-21T11:30:01.487Z,100051.25
2023-05-21T11:33:27.646Z,100051.48
2023-05-21T11:36:28.283Z,100049.06
2023-05-21T11:39:34.088Z,100068.19
2023-05-21T11:42:50.522Z,100092.64
2023-05-21T11:45:55.723Z,100086.77
2023-05-21T11:49:01.403Z,100083.61
2023-05-21T11:52:06.708Z,100080.80
2023-05-21T11:55:14.148Z,100065.61
2023-05-21T11:58:20.685Z,100061.41
2023-05-21T12:01:39.218Z,100069.20
2023-05-21T12:04:49.321Z,100070.20
2023-05-21T12:07:58.607Z,100070.95
2023-05-21T12:11:04.194Z,100077.81
2023-05-21T12:14:10.677Z,100081.11
2023-05-21T12:17:17.428Z,100088.48
2023-05-21T12:20:24.194Z,100090.45
2023-05-21T12:23:38.250Z,100085.38
2023-05-21T12:26:44.168Z,100088.36
2023-05-21T12:29:51.377Z,100090.50
2023-05-21T12:32:58.369Z,100087.44
2023-05-21T12:36:05.020Z,100085.26
2023-05-21T12:42:28.387Z,100081.80
2023-05-21T12:45:34.531Z,100076.05
2023-05-21T12:48:41.203Z,100084.81
2023-05-21T12:51:57.089Z,100092.84
2023-05-21T12:55:09.464Z,100085.91
2023-05-21T12:58:22.466Z,100094.27
2023-05-21T13:01:28.429Z,100087.53
2023-05-21T13:04:34.680Z,100089.52
2023-05-21T13:07:40.637Z,100083.11
2023-05-21T13:10:46.516Z,100090.80
2023-05-21T13:13:46.462Z,100096.30
2023-05-21T13:16:52.766Z,100114.91
2023-05-21T13:20:03.497Z,100145.48
2023-05-21T13:23:12.060Z,100187.41
2023-05-21T13:26:17.510Z,100212.00
2023-05-21T13:29:24.197Z,100227.03
2023-05-21T13:32:29.947Z,100220.91
2023-05-21T13:35:37.572Z,100220.87
2023-05-21T13:38:43.932Z,100217.95
2023-05-21T13:41:51.215Z,100221.28
2023-05-21T13:44:57.496Z,100220.56
2023-05-21T13:48:03.542Z,100228.13
2023-05-21T13:51:10.094Z,100225.98
2023-05-21T13:54:15.433Z,100233.92
2023-05-21T13:57:20.472Z,100236.09
2023-05-21T14:00:27.163Z,100239.05
2023-05-21T14:03:34.892Z,100240.73
2023-05-21T14:06:40.658Z,100241.95
2023-05-21T14:09:46.333Z,100235.46
2023-05-21T14:12:55.904Z,100230.24
2023-05-21T14:16:01.076Z,100226.59
2023-05-21T14:19:10.748Z,100222.03
2023-05-21T14:22:16.098Z,100220.77
2023-05-21T14:25:22.930Z,100214.16
2023-05-21T14:28:29.555Z,100214.42
2023-05-21T14:31:35.591Z,100196.16
2023-05-21T14:34:41.396Z,100179.58
2023-05-21T14:37:47.921Z,100182.00
2023-05-21T14:40:53.693Z,100190.34
2023-05-21T14:43:58.974Z,100194.98
2023-05-21T14:47:05.273Z,100193.98
2023-05-21T14:50:10.829Z,100194.97
2023-05-21T14:53:21.278Z,100194.87
2023-05-21T14:56:29.639Z,100194.94
2023-05-21T14:59:35.177Z,100191.81
2023-05-21T15:02:41.448Z,100186.58
2023-05-21T15:05:47.337Z,100190.48
2023-05-21T15:08:53.970Z,100193.13
2023-05-21T15:12:00.382Z,100196.37
2023-05-21T15:15:05.833Z,100200.55
2023-05-21T15:18:12.569Z,100203.80
2023-05-21T15:21:19.704Z,100204.05
2023-05-21T15:24:25.175Z,100206.94
2023-05-21T15:27:33.030Z,100211.94
2023-05-21T15:30:38.373Z,100219.11
2023-05-21T15:33:44.521Z,100217.80
2023-05-21T15:36:52.214Z,100214.30
2023-05-21T15:40:01.011Z,100223.69
2023-05-21T15:43:07.216Z,100235.50
2023-05-21T15:46:13.165Z,100242.73
2023-05-21T15:49:19.901Z,100243.86
2023-05-21T15:52:26.463Z,100247.73
2023-05-21T15:55:32.222Z,100242.98
2023-05-21T15:58:38.396Z,100229.08
2023-05-21T16:01:44.870Z,100220.44
2023-05-21T16:04:51.467Z,100223.28
2023-05-21T16:07:58.127Z,100225.37
2023-05-21T16:11:04.052Z,100214.80
2023-05-21T16:14:02.939Z,100211.14
2023-05-21T16:17:08.510Z,100206.53
2023-05-21T16:20:14.106Z,100204.11
2023-05-21T16:23:20.577Z,100199.05
2023-05-21T16:26:26.841Z,100190.68
2023-05-21T16:29:32.098Z,100193.58
2023-05-21T16:32:32.008Z,100197.45
2023-05-21T16:35:38.888Z,100201.60
2023-05-21T16:38:50.573Z,100194.62
2023-05-21T16:41:57.300Z,100190.82
2023-05-21T16:45:02.390Z,100180.55
2023-05-21T16:48:08.096Z,100173.75
2023-05-21T16:51:14.492Z,100174.17
2023-05-21T16:54:20.887Z,100173.08
2023-05-21T16:57:27.132Z,100171.89
2023-05-21T17:00:34.995Z,100166.42
2023-05-21T17:03:43.488Z,100169.37
2023-05-21T17:06:51.156Z,100173.35
2023-05-21T17:09:57.185Z,100177.30
2023-05-21T17:13:17.824Z,100175.16
2023-05-21T17:16:11.697Z,100164.20
2023-05-21T17:19:17.116Z,100164.55
2023-05-21T17:22:23.747Z,100158.45
2023-05-21T17:25:29.222Z,100151.86
2023-05-21T17:28:34.813Z,100150.95
2023-05-21T17:31:41.311Z,100143.44
2023-05-21T17:34:46.432Z,100141.31
2023-05-21T17:37:51.958Z,100134.19
2023-05-21T17:40:58.438Z,100125.83
2023-05-21T17:44:04.166Z,100125.89
2023-05-21T17:47:10.996Z,100128.40
2023-05-21T17:50:16.301Z,100133.05
2023-05-21T17:53:22.159Z,100129.91
2023-05-21T17:56:28.241Z,100126.20
2023-05-21T17:59:33.755Z,100132.40
2023-05-21T18:02:39.558Z,100133.27
2023-05-21T18:05:46.186Z,100131.03
2023-05-21T18:08:45.476Z,100125.96
2023-05-21T18:11:45.315Z,100126.92
2023-05-21T18:14:38.608Z,100125.91
2023-05-21T18:17:44.250Z,100132.48
2023-05-21T18:20:51.250Z,100134.27
2023-05-21T18:23:58.386Z,100142.63
2023-05-21T18:27:07.063Z,100136.39
2023-05-21T18:30:13.608Z,100139.72
2023-05-21T18:33:19.712Z,100130.22
2023-05-21T18:36:26.637Z,100129.38
2023-05-21T18:39:34.651Z,100125.07
2023-05-21T18:42:41.213Z,100120.62
2023-05-21T18:45:47.591Z,100123.70
2023-05-21T18:48:55.338Z,100125.13
2023-05-21T18:52:01.723Z,100120.57
2023-05-21T18:55:08.833Z,100121.93
2023-05-21T18:58:15.974Z,100122.31
2023-05-21T19:01:21.978Z,100122.70
2023-05-21T19:04:28.524Z,100127.77
2023-05-21T19:07:33.277Z,100124.38
2023-05-21T19:10:40.119Z,100126.28
2023-05-21T19:13:39.925Z,100137.33
2023-05-21T19:16:46.240Z,100136.28
2023-05-21T19:19:44.703Z,100147.66
2023-05-21T19:22:46.125Z,100172.91
2023-05-21T19:25:52.736Z,100184.75
2023-05-21T19:28:59.895Z,100171.88
2023-05-21T19:32:06.254Z,100166.05
2023-05-21T19:35:12.522Z,100165.58
2023-05-21T19:38:12.220Z,100164.27
2023-05-21T19:41:04.653Z,100171.30
2023-05-21T19:44:10.592Z,100178.42
2023-05-21T19:47:18.683Z,100170.70
2023-05-21T19:50:26.476Z,100166.41
2023-05-21T19:53:31.924Z,100171.45
2023-05-21T19:56:37.707Z,100163.05
2023-05-21T19:59:44.506Z,100163.58
2023-05-21T20:02:50.740Z,100157.50
2023-05-21T20:05:56.216Z,100158.22
2023-05-21T20:08:55.527Z,100151.00
2023-05-21T20:12:01.532Z,100143.69
2023-05-21T20:15:07.643Z,100136.92
2023-05-21T20:18:13.500Z,100136.43
2023-05-21T20:21:19.310Z,100124.00
2023-05-21T20:24:25.703Z,100125.88
2023-05-21T20:27:31.498Z,100120.21
2023-05-21T20:30:38.251Z,100115.85
2023-05-21T20:33:40.374Z,100113.59
2023-05-21T20:36:47.154Z,100109.23
2023-05-21T20:39:52.542Z,100106.83
2023-05-21T20:43:01.462Z,100110.70
2023-05-21T20:46:08.204Z,100107.72
2023-05-21T20:49:14.396Z,100104.14
2023-05-21T20:52:21.248Z,100107.42
2023-05-21T20:55:27.659Z,100099.31
2023-05-21T20:58:33.783Z,100094.35
2023-05-21T21:01:40.377Z,100099.77
2023-05-21T21:04:40.829Z,100094.60
2023-05-21T21:11:47.643Z,100100.70
2023-05-21T21:14:56.872Z,100092.22
2023-05-21T21:17:57.149Z,100083.39
2023-05-21T21:25:05.589Z,100090.02
2023-05-21T21:28:10.853Z,100083.52
2023-05-21T21:31:16.654Z,100085.86
2023-05-21T21:34:22.436Z,100090.73
2023-05-21T21:37:28.457Z,100095.91
2023-05-21T21:40:36.056Z,100092.92
2023-05-21T21:43:42.558Z,100092.91
2023-05-21T21:46:49.428Z,100092.42
2023-05-21T21:49:56.256Z,100090.07
2023-05-21T21:53:02.561Z,100091.58
2023-05-21T21:56:09.080Z,100087.77
2023-05-21T21:59:15.519Z,100086.95
2023-05-21T22:02:20.992Z,100084.34
2023-05-21T22:05:27.671Z,100086.31
2023-05-21T22:08:36.058Z,100080.08
2023-05-21T22:11:42.792Z,100072.16
2023-05-21T22:14:50.647Z,100069.27
2023-05-21T22:17:58.781Z,100071.77
2023-05-21T22:21:03.942Z,100069.02
2023-05-21T22:24:12.808Z,100055.80
2023-05-21T22:27:17.126Z,100057.30
2023-05-21T22:30:23.875Z,100047.87
2023-05-21T22:33:28.882Z,100047.35
2023-05-21T22:36:34.469Z,100041.43
2023-05-21T22:39:39.738Z,100035.77
2023-05-21T22:42:45.606Z,100037.89
2023-05-21T22:45:52.209Z,100034.70
2023-05-21T22:48:58.801Z,100033.61
2023-05-21T22:52:06.751Z,100031.03
2023-05-21T22:55:13.588Z,100037.25
2023-05-21T22:58:13.120Z,100030.30
2023-05-21T23:01:20.368Z,100031.13
2023-05-21T23:04:35.834Z,100030.11
2023-05-21T23:07:33.087Z,100028.58
2023-05-21T23:10:39.023Z,100025.27
2023-05-21T23:13:45.438Z,100030.77
2023-05-21T23:16:52.966Z,100022.56
2023-05-21T23:19:59.517Z,100020.63
2023-05-21T23:23:06.097Z,100016.15
2023-05-21T23:26:12.271Z,100014.48
2023-05-21T23:29:17.494Z,100013.25
2023-05-21T23:32:23.273Z,100012.97
2023-05-21T23:35:28.626Z,100011.09
2023-05-21T23:38:34.466Z,100007.41
2023-05-21T23:41:39.893Z,100013.14
2023-05-21T23:44:45.399Z,100011.77
2023-05-21T23:47:50.795Z,100008.00
2023-05-21T23:50:56.760Z,100005.73
2023-05-21T23:54:02.665Z,100006.14
2023-05-21T23:57:08.819Z,100005.06
